ジャカルタ の空港の天気 - METARとTAF

スカルノハッタ国際空港 ( WIII / CGK ) - インドネシア バンテン州、Cengkareng ( ジャカルタ近郊)
飛行場実況気象(Metar)
観測時間05/29 05:30 WIB (05/28 22:30 UTC)
風向・風速南東 3m/s
視程6000m
天気現象弱い雨
全天の8割程度の雲 雲底高度 610m
気温23℃
湿度100%
気圧1009hPa
METARWIII 282230Z 14006KT 6000 -RA BKN020 23/23 Q1009 NOSIG
過去の天気等 Google飛行場航空写真 Wunderground天気予報

過去48時間のMETAR

飛行場予報(TAF)
発表時間: 5/29 00:00 WIB (5/28 17:00 UTC)
予報対象時間: 29日1時 WIB ~ 30日7時 WIB
風向・風速不定 1m/s
視程5000m
天気現象弱い雨
全天の8割程度の雲 雲底高度 610m
29日1時 WIB ~ 29日4時 WIB に一時的に
風向・風速西 5m/s 瞬間風速 13m/s
視程3000m
天気現象雷雨
少しの積乱雲 雲底高度 550m
全天を覆う雲 雲底高度 580m
29日4時 WIB ~ 29日6時 WIB に徐々に
視程8000m
天気現象運行に影響にある天気現象が終了
全天の4割程度の雲 雲底高度 610m
29日10時 WIB ~ 29日12時 WIB に徐々に
風向・風速東北東 5m/s
TAF WIII 281700Z 2818/2924 VRB02KT 5000 -RA BKN020
TEMPO 2818/2821 28010G25KT 3000 TSRA FEW018CB OVC019
BECMG 2821/2823 8000 NSW SCT020
BECMG 2903/2905 07010KT